createdAt,value
2022-09-28T00:00:04.353Z,72.83
2022-09-28T00:01:04.343Z,61.39
2022-09-28T00:02:04.486Z,56.07
2022-09-28T00:03:04.925Z,63.16
2022-09-28T00:04:04.345Z,64.29
2022-09-28T00:05:04.341Z,59.46
2022-09-28T00:06:04.301Z,59.94
2022-09-28T00:07:04.315Z,61.55
2022-09-28T00:08:04.296Z,63.16
2022-09-28T00:09:04.293Z,66.06
2022-09-28T00:10:04.272Z,71.38
2022-09-28T00:11:04.269Z,65.74
2022-09-28T00:12:04.263Z,68.96
2022-09-28T00:13:04.251Z,71.38
2022-09-28T00:14:05.956Z,62.52
2022-09-28T00:15:04.246Z,55.91
2022-09-28T00:16:04.298Z,63.16
2022-09-28T00:17:04.220Z,61.87
2022-09-28T00:18:04.234Z,59.94
2022-09-28T00:19:04.191Z,64.61
2022-09-28T00:20:04.186Z,69.45
2022-09-28T00:21:04.185Z,67.35
2022-09-28T00:22:04.173Z,61.55
2022-09-28T00:23:04.173Z,61.71
2022-09-28T00:24:04.162Z,68.48
2022-09-28T00:25:04.161Z,71.22
2022-09-28T00:26:04.138Z,65.10
2022-09-28T00:27:04.145Z,66.55
2022-09-28T00:28:04.127Z,60.10
2022-09-28T00:29:04.126Z,59.62
2022-09-28T00:31:54.869Z,60.26
2022-09-28T00:32:54.797Z,51.08
2022-09-28T00:33:54.797Z,46.73
2022-09-28T00:34:54.780Z,45.92
2022-09-28T00:35:55.680Z,45.44
2022-09-28T00:36:54.779Z,69.93
2022-09-28T00:37:54.760Z,60.10
2022-09-28T00:38:54.757Z,62.84
2022-09-28T00:39:54.737Z,58.49
2022-09-28T00:40:54.818Z,63.97
2022-09-28T00:41:56.669Z,64.94
2022-09-28T00:42:54.727Z,58.01
2022-09-28T00:43:54.705Z,49.31
2022-09-28T00:44:54.701Z,55.91
2022-09-28T00:45:54.862Z,50.43
2022-09-28T00:46:54.684Z,56.40
2022-09-28T00:47:54.686Z,60.42
2022-09-28T00:48:54.672Z,62.04
2022-09-28T00:49:55.665Z,63.65
2022-09-28T00:50:54.652Z,61.55
2022-09-28T00:51:54.638Z,68.00
2022-09-28T00:52:55.667Z,66.39
2022-09-28T00:53:54.624Z,48.82
2022-09-28T00:54:54.627Z,47.21
2022-09-28T00:55:54.611Z,64.29
2022-09-28T00:56:54.604Z,57.20
2022-09-28T00:57:54.595Z,61.87
2022-09-28T00:58:55.612Z,60.59
2022-09-28T00:59:54.581Z,61.71
2022-09-28T01:00:54.607Z,69.61
2022-09-28T01:01:54.586Z,63.16
2022-09-28T01:02:54.569Z,61.71
2022-09-28T01:03:54.548Z,64.45
2022-09-28T01:04:54.546Z,57.04
2022-09-28T01:05:54.540Z,59.78
2022-09-28T01:06:54.521Z,64.29
2022-09-28T01:07:55.161Z,55.75
2022-09-28T01:08:54.506Z,49.15
2022-09-28T01:09:54.502Z,54.46
2022-09-28T01:10:54.492Z,56.40
2022-09-28T01:11:54.479Z,63.65
2022-09-28T01:12:54.476Z,62.84
2022-09-28T01:13:54.463Z,52.05
2022-09-28T01:14:54.465Z,67.51
2022-09-28T01:15:54.483Z,65.74
2022-09-28T01:16:54.438Z,69.77
2022-09-28T01:17:56.158Z,58.97
2022-09-28T01:18:54.424Z,65.90
2022-09-28T01:19:54.423Z,71.06
2022-09-28T01:20:54.413Z,59.14
2022-09-28T01:21:54.404Z,68.00
2022-09-28T01:22:54.392Z,71.87
2022-09-28T01:23:54.385Z,62.36
2022-09-28T01:24:54.392Z,60.10
2022-09-28T01:25:54.373Z,66.71
2022-09-28T01:26:54.362Z,62.20
2022-09-28T01:27:54.353Z,68.96
2022-09-28T01:28:55.093Z,66.39
2022-09-28T01:29:55.091Z,56.88
2022-09-28T01:30:54.337Z,60.10
2022-09-28T01:31:54.379Z,50.92
2022-09-28T01:32:54.315Z,51.08
2022-09-28T01:33:54.305Z,50.11
2022-09-28T01:34:54.305Z,51.72
2022-09-28T01:35:54.291Z,67.03
2022-09-28T01:36:54.284Z,68.64
2022-09-28T01:37:54.269Z,72.83
2022-09-28T01:38:54.267Z,65.26
2022-09-28T01:39:54.259Z,51.88
2022-09-28T01:40:54.306Z,50.92
2022-09-28T01:41:54.240Z,56.72
2022-09-28T01:42:54.232Z,65.42
2022-09-28T01:43:54.221Z,62.36
2022-09-28T01:44:54.227Z,50.92
2022-09-28T01:45:54.270Z,50.92
2022-09-28T01:46:54.214Z,61.23
2022-09-28T01:47:54.189Z,61.39
2022-09-28T01:48:54.184Z,61.87
2022-09-28T01:49:54.176Z,63.65
2022-09-28T01:50:55.093Z,62.20
2022-09-28T01:51:54.166Z,59.30
2022-09-28T01:52:54.155Z,65.42
2022-09-28T01:53:54.142Z,60.59
2022-09-28T01:54:54.134Z,51.72
2022-09-28T01:55:54.679Z,68.64
2022-09-28T01:56:54.116Z,68.16
2022-09-28T01:57:54.116Z,69.93
2022-09-28T01:58:54.102Z,59.94
2022-09-28T01:59:54.087Z,58.33
2022-09-28T02:00:54.168Z,66.55
2022-09-28T02:01:54.206Z,51.72
2022-09-28T02:02:54.065Z,59.14
2022-09-28T02:03:54.071Z,52.69
2022-09-28T02:04:54.051Z,62.84
2022-09-28T02:05:54.047Z,61.55
2022-09-28T02:06:54.047Z,66.06
2022-09-28T02:07:54.032Z,54.62
2022-09-28T02:08:54.019Z,54.79
2022-09-28T02:09:55.013Z,55.59
2022-09-28T02:10:54.002Z,63.97
2022-09-28T02:11:54.000Z,75.41
2022-09-28T02:12:55.611Z,63.97
2022-09-28T02:13:53.982Z,56.88
2022-09-28T02:14:53.974Z,59.14
2022-09-28T02:15:54.023Z,70.25
2022-09-28T02:16:53.957Z,62.68
2022-09-28T02:17:53.953Z,58.97
2022-09-28T02:18:53.938Z,63.81
2022-09-28T02:19:53.929Z,74.12
2022-09-28T02:20:53.921Z,63.65
2022-09-28T02:21:53.914Z,67.84
2022-09-28T02:22:55.688Z,61.55
2022-09-28T02:23:53.906Z,73.80
2022-09-28T02:24:53.888Z,63.81
2022-09-28T02:25:53.882Z,57.20
2022-09-28T02:26:55.595Z,72.35
2022-09-28T02:27:53.862Z,65.10
2022-09-28T02:28:54.678Z,67.03
2022-09-28T02:29:54.682Z,64.78
2022-09-28T02:30:53.844Z,72.19
2022-09-28T02:31:53.924Z,64.78
2022-09-28T02:32:53.832Z,62.20
2022-09-28T02:33:53.823Z,55.59
2022-09-28T02:34:53.811Z,71.70
2022-09-28T02:35:53.800Z,60.59
2022-09-28T02:36:53.805Z,67.68
2022-09-28T02:37:53.782Z,65.42
2022-09-28T02:38:53.781Z,63.97
2022-09-28T02:39:53.802Z,62.68
2022-09-28T02:40:53.825Z,70.42
2022-09-28T02:41:53.762Z,66.06
2022-09-28T02:42:54.681Z,65.10
2022-09-28T02:43:53.736Z,61.39
2022-09-28T02:44:53.727Z,62.68
2022-09-28T02:45:53.783Z,71.06
2022-09-28T02:46:53.709Z,72.03
2022-09-28T02:47:53.701Z,68.00
2022-09-28T02:49:10.577Z,70.25
2022-09-28T02:49:55.686Z,65.58
2022-09-28T02:50:53.675Z,64.29
2022-09-28T02:51:54.606Z,65.42
2022-09-28T02:52:53.669Z,67.03
2022-09-28T02:53:53.660Z,68.16
2022-09-28T02:54:53.645Z,68.16
2022-09-28T02:55:53.632Z,67.68
2022-09-28T02:56:56.203Z,63.16
2022-09-28T02:57:53.623Z,63.00
2022-09-28T02:58:53.610Z,63.33
2022-09-28T02:59:53.613Z,57.04
2022-09-28T03:00:53.651Z,61.07
2022-09-28T03:01:53.616Z,67.51
2022-09-28T03:02:53.578Z,66.71
2022-09-28T03:03:53.574Z,61.23
2022-09-28T03:04:53.570Z,63.16
2022-09-28T03:05:55.187Z,62.36
2022-09-28T03:06:53.551Z,64.13
2022-09-28T03:07:53.544Z,65.42
2022-09-28T03:08:53.530Z,66.55
2022-09-28T03:09:53.533Z,62.52
2022-09-28T03:10:53.525Z,70.42
2022-09-28T03:11:53.529Z,69.93
2022-09-28T03:12:53.500Z,68.48
2022-09-28T03:13:53.491Z,66.39
2022-09-28T03:14:53.484Z,67.68
2022-09-28T03:15:53.621Z,67.68
2022-09-28T03:16:53.473Z,69.29
2022-09-28T03:17:53.461Z,76.38
2022-09-28T03:18:53.455Z,68.16
2022-09-28T03:19:53.446Z,76.38
2022-09-28T03:20:53.442Z,64.61
2022-09-28T03:21:53.434Z,63.49
2022-09-28T03:23:19.759Z,69.93
2022-09-28T03:23:55.417Z,65.74
2022-09-28T03:24:53.413Z,70.90
2022-09-28T03:25:53.409Z,73.48
2022-09-28T03:26:54.116Z,68.32
2022-09-28T03:27:53.384Z,68.64
2022-09-28T03:28:53.373Z,72.99
2022-09-28T03:29:53.364Z,68.96
2022-09-28T03:30:53.355Z,68.48
2022-09-28T03:31:53.419Z,69.61
2022-09-28T03:32:53.339Z,72.51
2022-09-28T03:33:53.334Z,70.90
2022-09-28T03:34:53.323Z,73.80
2022-09-28T03:35:53.322Z,69.13
2022-09-28T03:36:53.318Z,68.00
2022-09-28T03:37:53.306Z,71.70
2022-09-28T03:38:53.286Z,77.99
2022-09-28T03:39:53.286Z,65.74
2022-09-28T03:40:53.304Z,75.41
2022-09-28T03:41:54.213Z,68.80
2022-09-28T03:42:53.257Z,68.64
2022-09-28T03:43:53.250Z,71.54
2022-09-28T03:44:53.242Z,69.45
2022-09-28T03:45:53.273Z,68.16
2022-09-28T03:46:53.233Z,69.61
2022-09-28T03:47:53.230Z,70.25
2022-09-28T03:48:53.208Z,69.93
2022-09-28T03:49:53.207Z,69.93
2022-09-28T03:50:53.191Z,69.45
2022-09-28T03:51:53.186Z,75.25
2022-09-28T03:52:53.189Z,71.87
2022-09-28T03:53:53.168Z,72.67
2022-09-28T03:54:53.174Z,70.58
2022-09-28T03:55:53.156Z,71.54
2022-09-28T03:56:53.134Z,69.13
2022-09-28T03:57:54.134Z,69.13
2022-09-28T03:58:53.128Z,69.77
2022-09-28T03:59:53.625Z,68.96
2022-09-28T04:00:53.198Z,71.87
2022-09-28T04:01:54.887Z,72.51
2022-09-28T04:02:53.086Z,69.61
2022-09-28T04:03:54.096Z,71.38
2022-09-28T04:04:53.093Z,78.63
2022-09-28T04:05:54.085Z,74.93
2022-09-28T04:06:53.067Z,66.06
2022-09-28T04:07:53.054Z,69.45
2022-09-28T04:08:53.057Z,69.45
2022-09-28T04:09:53.044Z,69.13
2022-09-28T04:10:53.029Z,72.19
2022-09-28T04:12:03.960Z,67.84
2022-09-28T04:12:55.013Z,73.32
2022-09-28T04:13:53.009Z,73.48
2022-09-28T04:14:53.005Z,65.90
2022-09-28T04:15:52.992Z,70.25
2022-09-28T04:16:53.005Z,69.93
2022-09-28T04:17:52.981Z,64.94
2022-09-28T04:18:52.968Z,70.74
2022-09-28T04:19:52.981Z,77.02
2022-09-28T04:20:52.958Z,77.83
2022-09-28T04:21:52.949Z,72.03
2022-09-28T04:22:52.938Z,68.48
2022-09-28T04:23:52.934Z,73.48
2022-09-28T04:24:52.934Z,72.51
2022-09-28T04:25:52.935Z,72.99
2022-09-28T04:26:52.909Z,73.32
2022-09-28T04:27:52.919Z,73.32
2022-09-28T04:28:52.890Z,73.80
2022-09-28T04:29:52.879Z,68.48
2022-09-28T04:30:52.885Z,76.70
2022-09-28T04:31:52.947Z,72.67
2022-09-28T04:32:52.858Z,72.83
2022-09-28T04:33:52.848Z,74.77
2022-09-28T04:34:52.840Z,72.67
2022-09-28T04:35:52.837Z,73.80
2022-09-28T04:36:52.839Z,75.89
2022-09-28T04:37:52.814Z,73.80
2022-09-28T04:38:54.701Z,72.67
2022-09-28T04:39:52.810Z,72.99
2022-09-28T04:40:56.773Z,71.06
2022-09-28T04:41:52.786Z,73.32
2022-09-28T04:42:52.775Z,68.48
2022-09-28T04:43:52.770Z,69.93
2022-09-28T04:44:52.767Z,73.15
2022-09-28T04:45:52.782Z,69.45
2022-09-28T04:46:53.635Z,70.09
2022-09-28T04:47:52.739Z,72.03
2022-09-28T04:48:52.730Z,72.83
2022-09-28T04:49:52.730Z,72.67
2022-09-28T04:52:59.597Z,73.32
2022-09-28T04:54:01.496Z,70.90
2022-09-28T04:55:01.699Z,75.89
2022-09-28T04:56:01.511Z,73.32
2022-09-28T04:57:00.677Z,72.83
2022-09-28T04:58:00.685Z,73.32
2022-09-28T04:59:02.431Z,73.64
2022-09-28T05:00:00.696Z,71.38
2022-09-28T05:01:00.728Z,73.80
2022-09-28T05:02:00.681Z,73.32
2022-09-28T05:03:00.635Z,75.25
2022-09-28T05:04:00.627Z,76.86
2022-09-28T05:05:00.637Z,76.38
2022-09-28T05:06:00.607Z,77.67
2022-09-28T05:07:02.514Z,77.18
2022-09-28T05:08:00.586Z,74.60
2022-09-28T05:09:00.568Z,72.83
2022-09-28T05:10:00.568Z,71.54
2022-09-28T05:11:00.567Z,73.64
2022-09-28T05:12:00.557Z,77.50
2022-09-28T05:13:00.549Z,73.80
2022-09-28T05:14:01.382Z,76.54
2022-09-28T05:15:00.521Z,78.31
2022-09-28T05:16:05.166Z,79.60
2022-09-28T05:17:01.671Z,77.34
2022-09-28T05:18:00.504Z,75.41
2022-09-28T05:19:00.503Z,76.38
2022-09-28T05:20:00.493Z,75.09
2022-09-28T05:21:00.522Z,77.67
2022-09-28T05:22:00.482Z,74.93
2022-09-28T05:23:00.477Z,74.12
2022-09-28T05:24:01.011Z,72.35
2022-09-28T05:25:05.024Z,75.89
2022-09-28T05:26:23.461Z,73.15
2022-09-28T05:27:00.446Z,75.89
2022-09-28T05:28:00.453Z,76.05
2022-09-28T05:29:00.419Z,77.34
2022-09-28T05:30:00.427Z,77.18
2022-09-28T05:31:00.436Z,78.15
2022-09-28T05:32:00.452Z,77.67
2022-09-28T05:33:00.392Z,79.92
2022-09-28T05:34:00.381Z,81.53
2022-09-28T05:35:02.936Z,76.70
2022-09-28T05:36:01.976Z,77.02
2022-09-28T05:38:49.077Z,77.02
2022-09-28T05:39:47.448Z,77.02
2022-09-28T05:40:47.522Z,75.41
2022-09-28T05:41:48.081Z,77.34
2022-09-28T05:42:47.451Z,75.09
2022-09-28T05:43:48.513Z,74.28
2022-09-28T05:44:48.569Z,75.89
2022-09-28T05:45:52.830Z,75.89
2022-09-28T05:46:50.506Z,74.93
2022-09-28T05:47:48.493Z,75.09
2022-09-28T05:48:48.478Z,74.60
2022-09-28T05:49:48.498Z,75.89
2022-09-28T05:50:48.458Z,75.41
2022-09-28T05:51:48.697Z,75.41
2022-09-28T05:52:51.176Z,74.44
2022-09-28T05:53:49.432Z,75.89
2022-09-28T05:54:48.432Z,76.38
2022-09-28T05:55:48.440Z,76.22
2022-09-28T05:56:48.418Z,77.34
2022-09-28T05:57:48.413Z,75.25
2022-09-28T05:58:48.412Z,73.64
2022-09-28T05:59:48.400Z,73.80
2022-09-28T06:00:48.426Z,74.77
2022-09-28T06:01:48.372Z,76.38
2022-09-28T06:02:48.415Z,75.25
2022-09-28T06:03:48.364Z,77.50
2022-09-28T06:04:49.091Z,73.80
2022-09-28T06:05:48.343Z,74.28
2022-09-28T06:06:48.369Z,77.83
2022-09-28T06:07:48.328Z,72.51
2022-09-28T06:08:48.319Z,73.32
2022-09-28T06:09:48.320Z,71.70
2022-09-28T06:10:48.311Z,75.41
2022-09-28T06:11:48.316Z,73.15
2022-09-28T06:12:48.292Z,74.28
2022-09-28T06:13:48.304Z,73.32
2022-09-28T06:14:48.275Z,72.19
2022-09-28T06:15:48.274Z,74.44
2022-09-28T06:16:48.307Z,77.99
2022-09-28T06:17:48.268Z,74.28
2022-09-28T06:18:48.237Z,76.86
2022-09-28T06:19:48.262Z,76.86
2022-09-28T06:20:48.259Z,76.86
2022-09-28T06:21:48.219Z,78.15
2022-09-28T06:22:48.204Z,73.64
2022-09-28T06:23:49.373Z,73.80
2022-09-28T06:24:50.106Z,97.97
2022-09-28T06:25:48.198Z,70.90
2022-09-28T06:26:48.197Z,74.93
2022-09-28T06:27:48.184Z,72.99
2022-09-28T06:28:48.164Z,72.99
2022-09-28T06:29:48.154Z,73.15
2022-09-28T06:30:48.296Z,74.77
2022-09-28T06:31:48.695Z,72.03
2022-09-28T06:32:48.157Z,74.44
2022-09-28T06:33:48.121Z,92.17
2022-09-28T06:34:50.695Z,70.90
2022-09-28T06:35:48.108Z,73.64
2022-09-28T06:36:48.095Z,77.34
2022-09-28T06:37:48.114Z,72.51
2022-09-28T06:38:48.083Z,74.93
2022-09-28T06:39:48.083Z,73.80
2022-09-28T06:40:48.164Z,73.80
2022-09-28T06:41:48.063Z,73.32
2022-09-28T06:42:48.055Z,71.70
2022-09-28T06:43:48.242Z,76.86
2022-09-28T06:44:48.036Z,72.83
2022-09-28T06:45:48.045Z,71.38
2022-09-28T06:46:48.024Z,73.32
2022-09-28T06:47:48.027Z,72.19
2022-09-28T06:48:49.016Z,72.35
2022-09-28T06:49:48.017Z,75.41
2022-09-28T06:50:47.990Z,74.44
2022-09-28T06:51:47.977Z,75.57
2022-09-28T06:52:49.673Z,72.99
2022-09-28T06:53:47.965Z,75.57
2022-09-28T06:54:47.978Z,73.48
2022-09-28T06:55:47.949Z,75.41
2022-09-28T06:56:47.945Z,74.93
2022-09-28T06:57:47.968Z,72.67
2022-09-28T06:58:47.923Z,74.93
2022-09-28T06:59:47.935Z,74.77
2022-09-28T07:00:47.961Z,74.60
2022-09-28T07:01:47.901Z,73.15
2022-09-28T07:02:48.070Z,71.70
2022-09-28T07:03:49.687Z,77.34
2022-09-28T07:04:47.883Z,72.19
2022-09-28T07:05:47.876Z,71.38
2022-09-28T07:06:47.890Z,71.22
2022-09-28T07:07:49.616Z,74.60
2022-09-28T07:08:53.690Z,75.41
2022-09-28T07:09:52.341Z,72.51
2022-09-28T07:10:49.838Z,74.44
2022-09-28T07:11:47.825Z,71.70
2022-09-28T07:12:47.821Z,70.09
2022-09-28T07:13:51.231Z,71.22
2022-09-28T07:14:49.313Z,73.15
2022-09-28T07:15:47.826Z,71.87
2022-09-28T07:17:11.728Z,71.22
2022-09-28T07:18:00.425Z,73.15
2022-09-28T07:18:49.793Z,71.22
2022-09-28T07:19:47.763Z,72.19
2022-09-28T07:20:54.271Z,76.86
2022-09-28T07:22:00.224Z,76.22
2022-09-28T07:22:49.739Z,72.03
2022-09-28T07:23:53.506Z,71.38
2022-09-28T07:24:51.706Z,79.44
2022-09-28T07:25:49.676Z,69.61
2022-09-28T07:26:47.714Z,70.74
2022-09-28T07:27:47.694Z,70.90
2022-09-28T07:28:49.185Z,71.54
2022-09-28T07:29:48.612Z,70.42
2022-09-28T07:30:47.732Z,70.90
2022-09-28T07:31:47.675Z,69.93
2022-09-28T07:32:47.664Z,72.51
2022-09-28T07:33:47.660Z,70.42
2022-09-28T07:34:47.650Z,72.03
2022-09-28T07:35:47.642Z,74.93
2022-09-28T07:36:47.660Z,76.22
2022-09-28T07:37:47.624Z,72.35
2022-09-28T07:38:47.608Z,72.35
2022-09-28T07:39:47.613Z,93.94
2022-09-28T07:40:48.570Z,71.54
2022-09-28T07:41:47.583Z,73.32
2022-09-28T07:42:47.566Z,70.09
2022-09-28T07:43:47.572Z,71.06
2022-09-28T07:44:47.556Z,70.42
2022-09-28T07:45:47.806Z,71.06
2022-09-28T07:46:47.568Z,71.06
2022-09-28T07:47:47.540Z,71.38
2022-09-28T07:48:47.525Z,69.45
2022-09-28T07:49:47.523Z,73.32
2022-09-28T07:50:47.516Z,68.96
2022-09-28T07:51:47.530Z,71.70
2022-09-28T07:52:47.493Z,75.25
2022-09-28T07:53:47.484Z,71.38
2022-09-28T07:54:48.121Z,71.54
2022-09-28T07:55:47.524Z,72.51
2022-09-28T07:56:47.487Z,70.25
2022-09-28T07:57:48.473Z,72.03
2022-09-28T07:58:47.463Z,70.74
2022-09-28T07:59:47.436Z,69.93
2022-09-28T08:00:47.665Z,71.06
2022-09-28T08:01:47.528Z,69.77
2022-09-28T08:02:47.479Z,72.35
2022-09-28T08:03:47.409Z,77.34
2022-09-28T08:04:47.437Z,71.54
2022-09-28T08:05:47.541Z,69.29
2022-09-28T08:06:47.416Z,69.61
2022-09-28T08:07:47.419Z,69.13
2022-09-28T08:08:47.378Z,72.35
2022-09-28T08:09:47.465Z,75.41
2022-09-28T08:10:47.722Z,73.80
2022-09-28T08:11:47.366Z,72.51
2022-09-28T08:12:47.349Z,78.47
2022-09-28T08:13:47.347Z,77.18
2022-09-28T08:14:47.331Z,70.74
2022-09-28T08:15:48.125Z,70.42
2022-09-28T08:16:49.556Z,71.70
2022-09-28T08:17:48.127Z,78.63
2022-09-28T08:18:49.204Z,78.47
2022-09-28T08:19:48.641Z,75.89
2022-09-28T08:20:51.313Z,75.89
2022-09-28T08:21:49.269Z,78.96
2022-09-28T08:22:48.214Z,77.83
2022-09-28T08:23:47.558Z,75.25
2022-09-28T08:24:48.135Z,77.50
2022-09-28T08:25:48.257Z,77.67
2022-09-28T08:26:47.234Z,75.89
2022-09-28T08:27:47.247Z,77.67
2022-09-28T08:28:48.129Z,76.54
2022-09-28T08:29:47.226Z,75.41
2022-09-28T08:30:47.315Z,72.67
2022-09-28T08:31:51.132Z,76.38
2022-09-28T08:32:47.284Z,75.41
2022-09-28T08:33:47.173Z,75.25
2022-09-28T08:34:47.180Z,76.70
2022-09-28T08:35:47.187Z,73.80
2022-09-28T08:36:47.156Z,74.60
2022-09-28T08:37:51.370Z,75.89
2022-09-28T08:38:49.130Z,75.41
2022-09-28T08:39:48.626Z,68.80
2022-09-28T08:40:47.214Z,73.80
2022-09-28T08:43:54.243Z,68.96
2022-09-28T08:44:53.385Z,72.19
2022-09-28T08:45:54.497Z,69.93
2022-09-28T08:46:54.462Z,68.48
2022-09-28T08:47:54.457Z,68.48
2022-09-28T08:49:13.404Z,70.09
2022-09-28T08:49:56.433Z,69.29
2022-09-28T08:50:55.445Z,71.87
2022-09-28T08:51:54.418Z,68.96
2022-09-28T08:52:55.348Z,71.70
2022-09-28T08:53:54.406Z,69.61
2022-09-28T08:54:56.330Z,88.30
2022-09-28T08:55:54.393Z,69.61
2022-09-28T08:56:54.376Z,68.16
2022-09-28T08:57:54.370Z,70.74
2022-09-28T08:58:56.325Z,70.25
2022-09-28T08:59:54.347Z,71.70
2022-09-28T09:00:54.422Z,72.19
2022-09-28T09:04:00.659Z,71.22
2022-09-28T09:05:00.664Z,69.13
2022-09-28T09:06:01.738Z,68.96
2022-09-28T09:07:01.750Z,75.41
2022-09-28T09:08:01.727Z,68.00
2022-09-28T09:09:01.720Z,67.03
2022-09-28T09:10:01.723Z,70.74
2022-09-28T09:11:01.719Z,71.70
2022-09-28T09:12:01.694Z,68.96
2022-09-28T09:13:01.692Z,74.44
2022-09-28T09:14:01.697Z,67.35
2022-09-28T09:15:02.567Z,72.51
2022-09-28T09:16:01.681Z,70.42
2022-09-28T09:17:01.712Z,68.96
2022-09-28T09:18:01.643Z,70.90
2022-09-28T09:19:01.662Z,69.77
2022-09-28T09:20:01.624Z,69.77
2022-09-28T09:21:01.627Z,70.09
2022-09-28T09:22:01.638Z,74.77
2022-09-28T09:23:01.624Z,70.42
2022-09-28T09:24:02.484Z,67.03
2022-09-28T09:25:01.606Z,68.80
2022-09-28T09:26:02.482Z,70.25
2022-09-28T09:27:01.574Z,67.35
2022-09-28T09:28:01.574Z,70.25
2022-09-28T09:29:01.607Z,71.06
2022-09-28T09:30:01.543Z,68.80
2022-09-28T09:31:02.792Z,69.61
2022-09-28T09:32:01.527Z,70.25
2022-09-28T09:33:01.513Z,68.00
2022-09-28T09:34:01.503Z,69.45
2022-09-28T09:35:01.497Z,70.90
2022-09-28T09:36:01.500Z,70.58
2022-09-28T09:37:01.504Z,70.42
2022-09-28T09:38:01.474Z,68.96
2022-09-28T09:39:01.492Z,66.71
2022-09-28T09:40:01.460Z,69.61
2022-09-28T09:41:03.184Z,71.22
2022-09-28T09:42:02.163Z,72.99
2022-09-28T09:43:01.444Z,70.25
2022-09-28T09:44:01.446Z,70.09
2022-09-28T09:45:03.072Z,71.87
2022-09-28T09:46:01.478Z,76.05
2022-09-28T09:47:01.434Z,72.03
2022-09-28T09:48:01.988Z,72.03
2022-09-28T09:49:01.438Z,72.83
2022-09-28T09:50:06.781Z,75.57
2022-09-28T09:51:08.115Z,68.96
2022-09-28T09:52:01.455Z,71.70
2022-09-28T09:53:01.368Z,72.19
2022-09-28T09:54:03.497Z,70.90
2022-09-28T09:55:01.373Z,70.90
2022-09-28T09:56:01.342Z,70.25
2022-09-28T09:57:01.367Z,70.25
2022-09-28T09:58:01.338Z,72.67
2022-09-28T09:59:03.119Z,73.64
2022-09-28T10:00:06.282Z,71.22
2022-09-28T10:01:01.380Z,71.06
2022-09-28T10:02:01.339Z,70.74
2022-09-28T10:03:01.992Z,73.80
2022-09-28T10:04:01.279Z,73.48
2022-09-28T10:05:02.011Z,74.60
2022-09-28T10:06:02.266Z,69.93
2022-09-28T10:07:01.252Z,70.90
2022-09-28T10:08:01.256Z,73.15
2022-09-28T10:09:01.234Z,72.83
2022-09-28T10:10:01.230Z,72.19
2022-09-28T10:11:01.227Z,72.51
2022-09-28T10:12:01.217Z,71.87
2022-09-28T10:13:01.204Z,72.83
2022-09-28T10:14:01.199Z,75.09
2022-09-28T10:15:01.201Z,73.48
2022-09-28T10:16:01.172Z,72.03
2022-09-28T10:17:01.220Z,73.64
2022-09-28T10:18:01.172Z,76.38
2022-09-28T10:19:01.163Z,73.80
2022-09-28T10:20:01.148Z,76.22
2022-09-28T10:21:01.143Z,73.64
2022-09-28T10:22:02.134Z,72.83
2022-09-28T10:23:02.998Z,73.80
2022-09-28T10:24:01.133Z,71.87
2022-09-28T10:25:01.121Z,74.28
2022-09-28T10:26:03.003Z,73.15
2022-09-28T10:27:01.105Z,74.93
2022-09-28T10:28:03.005Z,75.89
2022-09-28T10:29:01.220Z,71.54
2022-09-28T10:30:01.117Z,71.70
2022-09-28T10:31:01.183Z,73.32
2022-09-28T10:32:01.084Z,72.03
2022-09-28T10:33:01.061Z,71.54
2022-09-28T10:34:01.031Z,73.64
2022-09-28T10:35:02.581Z,72.99
2022-09-28T10:36:01.022Z,73.48
2022-09-28T10:37:01.029Z,74.28
2022-09-28T10:38:01.006Z,72.83
2022-09-28T10:39:00.993Z,73.64
2022-09-28T10:40:00.997Z,72.51
2022-09-28T10:41:01.094Z,70.58
2022-09-28T10:42:00.991Z,71.54
2022-09-28T10:43:00.962Z,73.64
2022-09-28T10:44:00.948Z,70.58
2022-09-28T10:45:00.976Z,74.28
2022-09-28T10:46:01.007Z,74.60
2022-09-28T10:47:00.935Z,71.70
2022-09-28T10:48:00.930Z,84.92
2022-09-28T10:49:00.911Z,71.54
2022-09-28T10:50:00.912Z,72.83
2022-09-28T10:51:00.906Z,71.06
2022-09-28T10:52:00.913Z,71.54
2022-09-28T10:53:00.890Z,72.35
2022-09-28T10:54:00.902Z,71.54
2022-09-28T10:55:06.519Z,75.41
2022-09-28T10:56:00.869Z,74.44
2022-09-28T10:57:00.871Z,75.73
2022-09-28T11:00:07.929Z,74.28
2022-09-28T11:01:07.991Z,71.54
2022-09-28T11:02:07.935Z,71.54
2022-09-28T11:03:09.562Z,72.99
2022-09-28T11:04:08.981Z,74.93
2022-09-28T11:05:08.971Z,73.32
2022-09-28T11:06:09.652Z,72.99
2022-09-28T11:07:08.954Z,72.67
2022-09-28T11:08:08.946Z,78.47
2022-09-28T11:09:08.937Z,71.38
2022-09-28T11:10:08.939Z,69.93
2022-09-28T11:11:11.067Z,70.25
2022-09-28T11:12:08.928Z,71.70
2022-09-28T11:13:08.921Z,73.15
2022-09-28T11:14:09.584Z,97.32
2022-09-28T11:15:08.897Z,72.03
2022-09-28T11:16:09.659Z,75.57
2022-09-28T11:17:08.916Z,79.60
2022-09-28T11:18:11.609Z,75.41
2022-09-28T11:19:09.568Z,75.89
2022-09-28T11:20:08.868Z,76.22
2022-09-28T11:21:13.003Z,72.83
2022-09-28T11:22:12.332Z,75.73
2022-09-28T11:23:09.848Z,73.48
2022-09-28T11:24:08.837Z,69.93
2022-09-28T11:25:09.661Z,70.42
2022-09-28T11:26:08.833Z,70.09
2022-09-28T11:27:08.798Z,69.29
2022-09-28T11:28:08.800Z,67.68
2022-09-28T11:29:08.792Z,67.84
2022-09-28T11:30:08.778Z,68.16
2022-09-28T11:31:08.818Z,68.48
2022-09-28T11:32:12.435Z,69.45
2022-09-28T11:33:09.785Z,71.06
2022-09-28T11:34:08.744Z,67.68
2022-09-28T11:35:08.733Z,70.09
2022-09-28T11:36:09.580Z,71.70
2022-09-28T11:37:08.720Z,69.77
2022-09-28T11:38:09.677Z,68.80
2022-09-28T11:39:11.181Z,74.93
2022-09-28T11:40:08.692Z,67.19
2022-09-28T11:41:08.697Z,68.32
2022-09-28T11:42:11.884Z,70.74
2022-09-28T11:43:10.710Z,71.22
2022-09-28T11:44:11.284Z,69.93
2022-09-28T11:45:08.654Z,68.32
2022-09-28T11:46:09.698Z,71.22
2022-09-28T11:47:08.684Z,66.71
2022-09-28T11:48:08.629Z,70.90
2022-09-28T11:49:08.625Z,69.45
2022-09-28T11:50:08.612Z,69.61
2022-09-28T11:51:17.179Z,69.77
2022-09-28T11:52:16.040Z,70.09
2022-09-28T11:53:13.094Z,72.19
2022-09-28T11:54:18.700Z,73.64
2022-09-28T11:55:09.288Z,75.09
2022-09-28T11:56:09.150Z,73.48
2022-09-28T11:57:31.595Z,68.80
2022-09-28T12:00:16.493Z,75.41
2022-09-28T12:01:18.858Z,70.42
2022-09-28T12:02:17.563Z,72.35
2022-09-28T12:03:16.675Z,68.96
2022-09-28T12:04:16.550Z,74.44
2022-09-28T12:05:20.664Z,72.83
2022-09-28T12:06:17.442Z,73.80
2022-09-28T12:07:18.347Z,71.54
2022-09-28T12:08:16.420Z,75.57
2022-09-28T12:09:18.438Z,73.32
2022-09-28T12:10:17.217Z,69.29
2022-09-28T12:11:16.394Z,69.77
2022-09-28T12:12:24.289Z,71.38
2022-09-28T12:13:19.481Z,68.48
2022-09-28T12:14:18.335Z,68.32
2022-09-28T12:17:41.817Z,68.96
2022-09-28T12:18:39.825Z,70.90
2022-09-28T12:19:43.677Z,70.09
2022-09-28T12:20:42.752Z,74.28
2022-09-28T12:21:39.807Z,72.99
2022-09-28T12:22:40.792Z,72.35
2022-09-28T12:23:39.780Z,73.32
2022-09-28T12:24:39.763Z,67.84
2022-09-28T12:25:39.763Z,70.58
2022-09-28T12:26:39.770Z,70.90
2022-09-28T12:27:39.739Z,72.99
2022-09-28T12:30:46.070Z,71.06
2022-09-28T12:31:47.111Z,68.96
2022-09-28T12:32:47.081Z,71.22
2022-09-28T12:33:47.078Z,68.00
2022-09-28T12:34:47.082Z,69.93
2022-09-28T12:35:47.062Z,72.03
2022-09-28T12:36:48.874Z,77.18
2022-09-28T12:37:47.048Z,71.70
2022-09-28T12:38:54.078Z,72.83
2022-09-28T12:39:57.428Z,71.22
2022-09-28T12:40:49.119Z,69.45
2022-09-28T12:41:48.871Z,71.38
2022-09-28T12:42:47.025Z,68.48
2022-09-28T12:43:47.198Z,73.96
2022-09-28T12:44:46.980Z,70.74
2022-09-28T12:46:10.408Z,72.03
2022-09-28T12:46:49.115Z,71.22
2022-09-28T12:47:48.879Z,70.58
2022-09-28T12:48:57.209Z,71.54
2022-09-28T12:50:56.778Z,71.22
2022-09-28T12:51:48.944Z,72.03
2022-09-28T12:52:47.501Z,72.35
2022-09-28T12:53:47.887Z,73.80
2022-09-28T12:54:48.487Z,71.54
2022-09-28T12:55:46.917Z,72.99
2022-09-28T12:56:46.893Z,74.60
2022-09-28T12:57:46.889Z,73.80
2022-09-28T12:58:46.893Z,75.09
2022-09-28T12:59:47.405Z,72.19
2022-09-28T13:00:47.389Z,82.98
2022-09-28T13:01:49.415Z,75.89
2022-09-28T13:02:46.908Z,81.86
2022-09-28T13:03:46.836Z,75.41
2022-09-28T13:04:48.386Z,79.60
2022-09-28T13:05:46.842Z,71.54
2022-09-28T13:06:47.802Z,71.70
2022-09-28T13:07:48.381Z,71.70
2022-09-28T13:08:46.802Z,74.28
2022-09-28T13:09:46.786Z,74.28
2022-09-28T13:10:46.827Z,77.02
2022-09-28T13:11:46.808Z,72.51